sensor_id;sensor_type;location;lat;lon;timestamp;P1;durP1;ratioP1;P2;durP2;ratioP2
22502;SDS011;11418;48.118;9.992;2023-03-01T00:00:29;2.65;;;1.00;;
22502;SDS011;11418;48.118;9.992;2023-03-01T00:04:30;10.73;;;6.03;;
22502;SDS011;11418;48.118;9.992;2023-03-01T00:08:30;10.82;;;4.97;;
22502;SDS011;11418;48.118;9.992;2023-03-01T00:12:32;7.15;;;1.85;;
22502;SDS011;11418;48.118;9.992;2023-03-01T00:16:34;11.85;;;5.68;;
22502;SDS011;11418;48.118;9.992;2023-03-01T00:20:39;9.45;;;4.50;;
22502;SDS011;11418;48.118;9.992;2023-03-01T00:24:40;1.90;;;1.58;;
22502;SDS011;11418;48.118;9.992;2023-03-01T00:28:41;3.28;;;2.58;;
22502;SDS011;11418;48.118;9.992;2023-03-01T00:32:42;8.75;;;4.70;;
22502;SDS011;11418;48.118;9.992;2023-03-01T00:36:42;11.73;;;4.45;;
22502;SDS011;11418;48.118;9.992;2023-03-01T00:40:43;3.47;;;2.67;;
22502;SDS011;11418;48.118;9.992;2023-03-01T00:44:44;8.38;;;4.78;;
22502;SDS011;11418;48.118;9.992;2023-03-01T00:48:44;5.15;;;2.22;;
22502;SDS011;11418;48.118;9.992;2023-03-01T00:52:45;13.70;;;6.88;;
22502;SDS011;11418;48.118;9.992;2023-03-01T00:56:46;11.65;;;5.40;;
22502;SDS011;11418;48.118;9.992;2023-03-01T01:00:47;7.65;;;3.78;;
22502;SDS011;11418;48.118;9.992;2023-03-01T01:04:47;7.97;;;4.20;;
22502;SDS011;11418;48.118;9.992;2023-03-01T01:08:48;9.70;;;5.38;;
22502;SDS011;11418;48.118;9.992;2023-03-01T01:12:49;16.10;;;6.65;;
22502;SDS011;11418;48.118;9.992;2023-03-01T01:16:50;7.85;;;2.97;;
22502;SDS011;11418;48.118;9.992;2023-03-01T01:20:51;5.03;;;2.78;;
22502;SDS011;11418;48.118;9.992;2023-03-01T01:24:51;12.60;;;5.90;;
22502;SDS011;11418;48.118;9.992;2023-03-01T01:28:52;4.43;;;1.25;;
22502;SDS011;11418;48.118;9.992;2023-03-01T01:32:53;7.35;;;3.15;;
22502;SDS011;11418;48.118;9.992;2023-03-01T01:36:54;15.02;;;6.45;;
22502;SDS011;11418;48.118;9.992;2023-03-01T01:40:55;6.97;;;2.67;;
22502;SDS011;11418;48.118;9.992;2023-03-01T01:49:51;1.65;;;1.50;;
22502;SDS011;11418;48.118;9.992;2023-03-01T01:53:56;8.57;;;4.60;;
22502;SDS011;11418;48.118;9.992;2023-03-01T01:58:02;4.43;;;2.92;;
22502;SDS011;11418;48.118;9.992;2023-03-01T02:02:04;12.40;;;5.78;;
22502;SDS011;11418;48.118;9.992;2023-03-01T02:10:23;15.73;;;7.32;;
22502;SDS011;11418;48.118;9.992;2023-03-01T02:14:25;5.75;;;4.32;;
22502;SDS011;11418;48.118;9.992;2023-03-01T02:18:26;7.82;;;3.25;;
22502;SDS011;11418;48.118;9.992;2023-03-01T02:32:30;12.93;;;6.78;;
22502;SDS011;11418;48.118;9.992;2023-03-01T02:36:32;12.23;;;6.28;;
22502;SDS011;11418;48.118;9.992;2023-03-01T02:40:36;5.60;;;4.00;;
22502;SDS011;11418;48.118;9.992;2023-03-01T02:44:39;16.55;;;7.18;;
22502;SDS011;11418;48.118;9.992;2023-03-01T02:48:44;13.02;;;5.53;;
22502;SDS011;11418;48.118;9.992;2023-03-01T02:52:57;3.85;;;2.63;;
22502;SDS011;11418;48.118;9.992;2023-03-01T02:57:04;8.18;;;4.13;;
22502;SDS011;11418;48.118;9.992;2023-03-01T03:01:05;4.90;;;3.13;;
22502;SDS011;11418;48.118;9.992;2023-03-01T03:05:11;13.60;;;6.15;;
22502;SDS011;11418;48.118;9.992;2023-03-01T03:09:14;15.40;;;7.80;;
22502;SDS011;11418;48.118;9.992;2023-03-01T03:13:16;7.88;;;1.75;;
22502;SDS011;11418;48.118;9.992;2023-03-01T03:17:17;13.73;;;5.63;;
22502;SDS011;11418;48.118;9.992;2023-03-01T03:21:17;6.88;;;4.82;;
22502;SDS011;11418;48.118;9.992;2023-03-01T03:25:18;9.52;;;5.85;;
22502;SDS011;11418;48.118;9.992;2023-03-01T03:29:19;12.75;;;5.32;;
22502;SDS011;11418;48.118;9.992;2023-03-01T03:33:20;10.93;;;5.95;;
22502;SDS011;11418;48.118;9.992;2023-03-01T03:37:20;13.07;;;5.95;;
22502;SDS011;11418;48.118;9.992;2023-03-01T03:41:40;11.80;;;6.07;;
22502;SDS011;11418;48.118;9.992;2023-03-01T03:45:40;14.90;;;6.07;;
22502;SDS011;11418;48.118;9.992;2023-03-01T03:49:41;17.55;;;7.78;;
22502;SDS011;11418;48.118;9.992;2023-03-01T03:53:42;14.63;;;7.13;;
22502;SDS011;11418;48.118;9.992;2023-03-01T03:57:43;7.38;;;3.50;;
22502;SDS011;11418;48.118;9.992;2023-03-01T04:01:44;6.97;;;4.78;;
22502;SDS011;11418;48.118;9.992;2023-03-01T04:05:45;13.13;;;6.60;;
22502;SDS011;11418;48.118;9.992;2023-03-01T04:09:47;14.55;;;6.93;;
22502;SDS011;11418;48.118;9.992;2023-03-01T04:13:47;12.85;;;6.90;;
22502;SDS011;11418;48.118;9.992;2023-03-01T04:17:49;13.35;;;7.35;;
22502;SDS011;11418;48.118;9.992;2023-03-01T04:21:51;11.23;;;4.55;;
22502;SDS011;11418;48.118;9.992;2023-03-01T04:25:53;12.38;;;5.93;;
22502;SDS011;11418;48.118;9.992;2023-03-01T04:29:55;13.55;;;6.50;;
22502;SDS011;11418;48.118;9.992;2023-03-01T04:33:55;6.88;;;4.30;;
22502;SDS011;11418;48.118;9.992;2023-03-01T04:37:56;10.13;;;5.07;;
22502;SDS011;11418;48.118;9.992;2023-03-01T04:41:57;9.90;;;6.60;;
22502;SDS011;11418;48.118;9.992;2023-03-01T04:46:04;11.18;;;5.05;;
22502;SDS011;11418;48.118;9.992;2023-03-01T04:50:09;12.35;;;7.32;;
22502;SDS011;11418;48.118;9.992;2023-03-01T04:54:11;11.15;;;6.38;;
22502;SDS011;11418;48.118;9.992;2023-03-01T04:58:11;9.07;;;4.10;;
22502;SDS011;11418;48.118;9.992;2023-03-01T05:02:12;7.50;;;4.75;;
22502;SDS011;11418;48.118;9.992;2023-03-01T05:06:12;11.07;;;5.43;;
22502;SDS011;11418;48.118;9.992;2023-03-01T05:10:14;7.20;;;3.10;;
22502;SDS011;11418;48.118;9.992;2023-03-01T05:14:14;15.05;;;7.95;;
22502;SDS011;11418;48.118;9.992;2023-03-01T05:18:15;17.17;;;7.95;;
22502;SDS011;11418;48.118;9.992;2023-03-01T05:22:16;13.95;;;8.10;;
22502;SDS011;11418;48.118;9.992;2023-03-01T05:26:17;8.13;;;4.68;;
22502;SDS011;11418;48.118;9.992;2023-03-01T05:30:19;9.57;;;5.82;;
22502;SDS011;11418;48.118;9.992;2023-03-01T05:34:23;7.40;;;3.35;;
22502;SDS011;11418;48.118;9.992;2023-03-01T05:38:25;9.35;;;4.85;;
22502;SDS011;11418;48.118;9.992;2023-03-01T05:42:25;10.93;;;7.07;;
22502;SDS011;11418;48.118;9.992;2023-03-01T05:46:26;15.13;;;7.28;;
22502;SDS011;11418;48.118;9.992;2023-03-01T05:50:28;13.23;;;6.88;;
22502;SDS011;11418;48.118;9.992;2023-03-01T05:54:30;16.08;;;7.40;;
22502;SDS011;11418;48.118;9.992;2023-03-01T05:58:30;9.07;;;5.07;;
22502;SDS011;11418;48.118;9.992;2023-03-01T06:02:31;13.82;;;6.45;;
22502;SDS011;11418;48.118;9.992;2023-03-01T06:06:35;15.18;;;7.00;;
22502;SDS011;11418;48.118;9.992;2023-03-01T06:10:37;16.40;;;8.10;;
22502;SDS011;11418;48.118;9.992;2023-03-01T06:14:38;4.28;;;2.10;;
22502;SDS011;11418;48.118;9.992;2023-03-01T06:18:38;13.60;;;7.82;;
22502;SDS011;11418;48.118;9.992;2023-03-01T06:22:39;11.30;;;3.92;;
22502;SDS011;11418;48.118;9.992;2023-03-01T06:26:40;9.85;;;4.75;;
22502;SDS011;11418;48.118;9.992;2023-03-01T06:30:42;18.80;;;9.00;;
22502;SDS011;11418;48.118;9.992;2023-03-01T06:34:42;7.60;;;4.68;;
22502;SDS011;11418;48.118;9.992;2023-03-01T06:38:43;5.80;;;3.65;;
22502;SDS011;11418;48.118;9.992;2023-03-01T06:42:47;8.07;;;4.80;;
22502;SDS011;11418;48.118;9.992;2023-03-01T06:46:49;11.27;;;6.07;;
22502;SDS011;11418;48.118;9.992;2023-03-01T06:50:49;9.73;;;5.38;;
22502;SDS011;11418;48.118;9.992;2023-03-01T06:54:50;11.57;;;5.32;;
22502;SDS011;11418;48.118;9.992;2023-03-01T06:58:50;13.05;;;6.65;;
22502;SDS011;11418;48.118;9.992;2023-03-01T07:02:51;15.10;;;6.07;;
22502;SDS011;11418;48.118;9.992;2023-03-01T07:06:52;9.68;;;4.47;;
22502;SDS011;11418;48.118;9.992;2023-03-01T07:10:58;14.52;;;7.35;;
22502;SDS011;11418;48.118;9.992;2023-03-01T07:14:59;15.70;;;6.55;;
22502;SDS011;11418;48.118;9.992;2023-03-01T07:18:59;14.55;;;7.13;;
22502;SDS011;11418;48.118;9.992;2023-03-01T07:23:00;16.27;;;7.72;;
22502;SDS011;11418;48.118;9.992;2023-03-01T07:27:00;10.60;;;6.20;;
22502;SDS011;11418;48.118;9.992;2023-03-01T07:31:01;19.25;;;5.80;;
22502;SDS011;11418;48.118;9.992;2023-03-01T07:35:03;12.00;;;6.07;;
22502;SDS011;11418;48.118;9.992;2023-03-01T07:39:03;6.88;;;3.33;;
22502;SDS011;11418;48.118;9.992;2023-03-01T07:43:04;15.20;;;6.95;;
22502;SDS011;11418;48.118;9.992;2023-03-01T07:47:04;5.65;;;3.63;;
22502;SDS011;11418;48.118;9.992;2023-03-01T07:51:05;18.65;;;8.05;;
22502;SDS011;11418;48.118;9.992;2023-03-01T07:55:06;10.18;;;5.10;;
22502;SDS011;11418;48.118;9.992;2023-03-01T07:59:07;8.80;;;4.50;;
22502;SDS011;11418;48.118;9.992;2023-03-01T08:03:08;11.23;;;5.53;;
22502;SDS011;11418;48.118;9.992;2023-03-01T08:07:08;14.77;;;7.45;;
22502;SDS011;11418;48.118;9.992;2023-03-01T08:11:12;13.82;;;7.05;;
22502;SDS011;11418;48.118;9.992;2023-03-01T08:15:14;18.88;;;7.95;;
22502;SDS011;11418;48.118;9.992;2023-03-01T08:19:15;10.65;;;4.65;;
22502;SDS011;11418;48.118;9.992;2023-03-01T08:23:15;10.43;;;6.30;;
22502;SDS011;11418;48.118;9.992;2023-03-01T08:27:16;11.68;;;6.97;;
22502;SDS011;11418;48.118;9.992;2023-03-01T08:35:22;9.38;;;5.40;;
22502;SDS011;11418;48.118;9.992;2023-03-01T08:39:23;12.68;;;6.38;;
22502;SDS011;11418;48.118;9.992;2023-03-01T08:43:23;10.82;;;6.80;;
22502;SDS011;11418;48.118;9.992;2023-03-01T08:47:24;15.70;;;7.20;;
22502;SDS011;11418;48.118;9.992;2023-03-01T08:51:26;15.85;;;6.82;;
22502;SDS011;11418;48.118;9.992;2023-03-01T08:55:27;14.70;;;6.20;;
22502;SDS011;11418;48.118;9.992;2023-03-01T08:59:28;4.95;;;1.55;;
22502;SDS011;11418;48.118;9.992;2023-03-01T09:03:29;16.38;;;8.48;;
22502;SDS011;11418;48.118;9.992;2023-03-01T09:07:30;7.47;;;4.97;;
22502;SDS011;11418;48.118;9.992;2023-03-01T09:11:30;23.33;;;9.52;;
22502;SDS011;11418;48.118;9.992;2023-03-01T09:15:31;5.13;;;3.45;;
22502;SDS011;11418;48.118;9.992;2023-03-01T09:19:33;13.90;;;6.85;;
22502;SDS011;11418;48.118;9.992;2023-03-01T09:23:38;10.02;;;4.45;;
22502;SDS011;11418;48.118;9.992;2023-03-01T09:27:41;21.33;;;8.70;;
22502;SDS011;11418;48.118;9.992;2023-03-01T09:31:42;8.93;;;5.43;;
22502;SDS011;11418;48.118;9.992;2023-03-01T09:35:43;14.32;;;6.88;;
22502;SDS011;11418;48.118;9.992;2023-03-01T09:39:46;16.08;;;6.30;;
22502;SDS011;11418;48.118;9.992;2023-03-01T09:43:48;13.95;;;6.65;;
22502;SDS011;11418;48.118;9.992;2023-03-01T09:47:53;16.88;;;7.32;;
22502;SDS011;11418;48.118;9.992;2023-03-01T09:51:56;21.58;;;9.98;;
22502;SDS011;11418;48.118;9.992;2023-03-01T09:56:05;11.15;;;4.15;;
22502;SDS011;11418;48.118;9.992;2023-03-01T10:05:10;13.55;;;5.78;;
22502;SDS011;11418;48.118;9.992;2023-03-01T10:09:24;11.98;;;4.00;;
22502;SDS011;11418;48.118;9.992;2023-03-01T10:21:41;7.05;;;4.38;;
22502;SDS011;11418;48.118;9.992;2023-03-01T10:25:56;11.35;;;4.80;;
22502;SDS011;11418;48.118;9.992;2023-03-01T10:30:35;10.35;;;4.50;;
22502;SDS011;11418;48.118;9.992;2023-03-01T10:34:39;8.13;;;4.38;;
22502;SDS011;11418;48.118;9.992;2023-03-01T10:38:53;13.25;;;5.80;;
22502;SDS011;11418;48.118;9.992;2023-03-01T10:42:57;11.88;;;6.65;;
22502;SDS011;11418;48.118;9.992;2023-03-01T10:46:59;14.07;;;6.53;;
22502;SDS011;11418;48.118;9.992;2023-03-01T10:55:23;10.10;;;3.47;;
22502;SDS011;11418;48.118;9.992;2023-03-01T10:59:45;18.05;;;8.13;;
22502;SDS011;11418;48.118;9.992;2023-03-01T11:03:46;12.85;;;6.18;;
22502;SDS011;11418;48.118;9.992;2023-03-01T11:12:13;11.00;;;5.45;;
22502;SDS011;11418;48.118;9.992;2023-03-01T11:16:15;13.57;;;6.68;;
22502;SDS011;11418;48.118;9.992;2023-03-01T11:20:31;20.25;;;8.50;;
22502;SDS011;11418;48.118;9.992;2023-03-01T11:24:36;11.02;;;6.40;;
22502;SDS011;11418;48.118;9.992;2023-03-01T11:28:43;18.57;;;8.40;;
22502;SDS011;11418;48.118;9.992;2023-03-01T11:32:52;17.50;;;7.75;;
22502;SDS011;11418;48.118;9.992;2023-03-01T11:41:28;8.88;;;5.00;;
22502;SDS011;11418;48.118;9.992;2023-03-01T11:45:36;18.38;;;7.93;;
22502;SDS011;11418;48.118;9.992;2023-03-01T11:54:11;11.05;;;5.82;;
22502;SDS011;11418;48.118;9.992;2023-03-01T12:07:00;19.33;;;8.40;;
22502;SDS011;11418;48.118;9.992;2023-03-01T12:11:22;14.25;;;4.32;;
22502;SDS011;11418;48.118;9.992;2023-03-01T12:15:40;18.08;;;8.68;;
22502;SDS011;11418;48.118;9.992;2023-03-01T12:28:48;17.58;;;7.90;;
22502;SDS011;11418;48.118;9.992;2023-03-01T12:37:28;11.63;;;5.43;;
22502;SDS011;11418;48.118;9.992;2023-03-01T12:54:58;17.58;;;9.23;;
22502;SDS011;11418;48.118;9.992;2023-03-01T12:59:05;14.15;;;6.97;;
22502;SDS011;11418;48.118;9.992;2023-03-01T13:03:50;16.17;;;7.70;;
22502;SDS011;11418;48.118;9.992;2023-03-01T13:08:05;19.23;;;9.05;;
22502;SDS011;11418;48.118;9.992;2023-03-01T13:16:43;17.63;;;10.20;;
22502;SDS011;11418;48.118;9.992;2023-03-01T13:20:46;11.85;;;6.00;;
22502;SDS011;11418;48.118;9.992;2023-03-01T13:24:48;20.80;;;9.20;;
22502;SDS011;11418;48.118;9.992;2023-03-01T13:29:02;22.50;;;10.40;;
22502;SDS011;11418;48.118;9.992;2023-03-01T13:37:31;20.00;;;10.05;;
22502;SDS011;11418;48.118;9.992;2023-03-01T13:45:41;20.92;;;10.48;;
22502;SDS011;11418;48.118;9.992;2023-03-01T13:49:44;23.35;;;9.30;;
22502;SDS011;11418;48.118;9.992;2023-03-01T13:53:52;19.88;;;10.55;;
22502;SDS011;11418;48.118;9.992;2023-03-01T13:57:58;12.90;;;7.05;;
22502;SDS011;11418;48.118;9.992;2023-03-01T14:02:01;15.48;;;7.60;;
22502;SDS011;11418;48.118;9.992;2023-03-01T14:18:42;21.45;;;10.55;;
22502;SDS011;11418;48.118;9.992;2023-03-01T14:23:01;14.90;;;7.38;;
22502;SDS011;11418;48.118;9.992;2023-03-01T14:27:10;20.42;;;10.85;;
22502;SDS011;11418;48.118;9.992;2023-03-01T14:36:00;8.77;;;5.15;;
22502;SDS011;11418;48.118;9.992;2023-03-01T14:40:19;21.95;;;10.27;;
22502;SDS011;11418;48.118;9.992;2023-03-01T14:44:24;17.80;;;8.80;;
22502;SDS011;11418;48.118;9.992;2023-03-01T14:48:25;19.77;;;8.88;;
22502;SDS011;11418;48.118;9.992;2023-03-01T14:52:34;19.67;;;10.88;;
22502;SDS011;11418;48.118;9.992;2023-03-01T14:56:45;17.80;;;8.85;;
22502;SDS011;11418;48.118;9.992;2023-03-01T15:00:53;18.13;;;9.70;;
22502;SDS011;11418;48.118;9.992;2023-03-01T15:04:57;25.38;;;11.25;;
22502;SDS011;11418;48.118;9.992;2023-03-01T15:09:03;20.65;;;10.52;;
22502;SDS011;11418;48.118;9.992;2023-03-01T15:13:22;13.02;;;6.85;;
22502;SDS011;11418;48.118;9.992;2023-03-01T15:17:36;17.88;;;11.00;;
22502;SDS011;11418;48.118;9.992;2023-03-01T15:21:38;21.75;;;10.98;;
22502;SDS011;11418;48.118;9.992;2023-03-01T15:25:44;22.00;;;11.18;;
22502;SDS011;11418;48.118;9.992;2023-03-01T15:34:31;18.67;;;9.70;;
22502;SDS011;11418;48.118;9.992;2023-03-01T15:42:40;10.07;;;4.97;;
22502;SDS011;11418;48.118;9.992;2023-03-01T15:46:44;23.55;;;9.50;;
22502;SDS011;11418;48.118;9.992;2023-03-01T15:50:53;21.48;;;10.52;;
22502;SDS011;11418;48.118;9.992;2023-03-01T15:54:57;25.48;;;11.88;;
22502;SDS011;11418;48.118;9.992;2023-03-01T15:59:03;24.73;;;11.20;;
22502;SDS011;11418;48.118;9.992;2023-03-01T16:03:05;25.27;;;10.88;;
22502;SDS011;11418;48.118;9.992;2023-03-01T16:07:09;14.65;;;6.60;;
22502;SDS011;11418;48.118;9.992;2023-03-01T16:11:14;21.15;;;11.02;;
22502;SDS011;11418;48.118;9.992;2023-03-01T16:15:20;20.77;;;10.77;;
22502;SDS011;11418;48.118;9.992;2023-03-01T16:19:22;22.15;;;11.05;;
22502;SDS011;11418;48.118;9.992;2023-03-01T17:31:07;22.48;;;11.15;;
22502;SDS011;11418;48.118;9.992;2023-03-01T17:35:08;26.20;;;10.20;;
22502;SDS011;11418;48.118;9.992;2023-03-01T17:39:11;37.85;;;16.58;;
22502;SDS011;11418;48.118;9.992;2023-03-01T17:43:15;28.15;;;12.55;;
22502;SDS011;11418;48.118;9.992;2023-03-01T17:47:16;27.98;;;13.63;;
22502;SDS011;11418;48.118;9.992;2023-03-01T17:51:17;32.10;;;13.95;;
22502;SDS011;11418;48.118;9.992;2023-03-01T17:55:18;28.77;;;13.63;;
22502;SDS011;11418;48.118;9.992;2023-03-01T17:59:18;26.38;;;12.68;;
22502;SDS011;11418;48.118;9.992;2023-03-01T18:03:19;22.23;;;10.60;;
22502;SDS011;11418;48.118;9.992;2023-03-01T18:07:20;30.17;;;13.63;;
22502;SDS011;11418;48.118;9.992;2023-03-01T18:11:22;29.88;;;14.35;;
22502;SDS011;11418;48.118;9.992;2023-03-01T18:15:24;29.33;;;13.55;;
22502;SDS011;11418;48.118;9.992;2023-03-01T18:19:24;55.05;;;22.40;;
22502;SDS011;11418;48.118;9.992;2023-03-01T18:23:25;39.92;;;18.65;;
22502;SDS011;11418;48.118;9.992;2023-03-01T18:27:26;33.45;;;16.88;;
22502;SDS011;11418;48.118;9.992;2023-03-01T18:31:26;41.97;;;15.52;;
22502;SDS011;11418;48.118;9.992;2023-03-01T18:35:34;37.97;;;17.50;;
22502;SDS011;11418;48.118;9.992;2023-03-01T18:39:36;35.05;;;14.90;;
22502;SDS011;11418;48.118;9.992;2023-03-01T18:43:36;35.65;;;15.60;;
22502;SDS011;11418;48.118;9.992;2023-03-01T18:47:37;33.03;;;14.57;;
22502;SDS011;11418;48.118;9.992;2023-03-01T18:51:38;32.33;;;13.85;;
22502;SDS011;11418;48.118;9.992;2023-03-01T18:55:40;32.15;;;15.02;;
22502;SDS011;11418;48.118;9.992;2023-03-01T18:59:40;29.95;;;14.13;;
22502;SDS011;11418;48.118;9.992;2023-03-01T19:03:41;33.35;;;15.75;;
22502;SDS011;11418;48.118;9.992;2023-03-01T19:07:41;28.08;;;13.13;;
22502;SDS011;11418;48.118;9.992;2023-03-01T19:11:42;25.90;;;11.90;;
22502;SDS011;11418;48.118;9.992;2023-03-01T19:15:42;28.48;;;12.88;;
22502;SDS011;11418;48.118;9.992;2023-03-01T19:19:43;28.25;;;12.10;;
22502;SDS011;11418;48.118;9.992;2023-03-01T19:23:44;26.98;;;12.05;;
22502;SDS011;11418;48.118;9.992;2023-03-01T19:27:44;27.00;;;12.55;;
22502;SDS011;11418;48.118;9.992;2023-03-01T19:31:47;27.67;;;11.40;;
22502;SDS011;11418;48.118;9.992;2023-03-01T19:35:48;25.65;;;11.45;;
22502;SDS011;11418;48.118;9.992;2023-03-01T19:39:50;25.30;;;11.45;;
22502;SDS011;11418;48.118;9.992;2023-03-01T19:43:50;26.80;;;11.93;;
22502;SDS011;11418;48.118;9.992;2023-03-01T19:47:52;25.50;;;11.27;;
22502;SDS011;11418;48.118;9.992;2023-03-01T19:51:53;23.33;;;10.63;;
22502;SDS011;11418;48.118;9.992;2023-03-01T19:55:57;29.67;;;13.23;;
22502;SDS011;11418;48.118;9.992;2023-03-01T19:59:59;30.23;;;12.77;;
22502;SDS011;11418;48.118;9.992;2023-03-01T20:04:00;31.48;;;13.88;;
22502;SDS011;11418;48.118;9.992;2023-03-01T20:08:01;25.38;;;11.65;;
22502;SDS011;11418;48.118;9.992;2023-03-01T20:12:02;26.45;;;13.02;;
22502;SDS011;11418;48.118;9.992;2023-03-01T20:16:03;31.17;;;13.70;;
22502;SDS011;11418;48.118;9.992;2023-03-01T20:20:04;26.40;;;12.77;;
22502;SDS011;11418;48.118;9.992;2023-03-01T20:24:05;39.03;;;15.98;;
22502;SDS011;11418;48.118;9.992;2023-03-01T20:28:06;41.20;;;15.95;;
22502;SDS011;11418;48.118;9.992;2023-03-01T20:32:06;32.38;;;13.93;;
22502;SDS011;11418;48.118;9.992;2023-03-01T20:36:07;34.95;;;13.45;;
22502;SDS011;11418;48.118;9.992;2023-03-01T20:40:09;26.90;;;12.27;;
22502;SDS011;11418;48.118;9.992;2023-03-01T20:44:11;25.77;;;11.85;;
22502;SDS011;11418;48.118;9.992;2023-03-01T20:48:11;24.83;;;11.43;;
22502;SDS011;11418;48.118;9.992;2023-03-01T20:52:12;27.55;;;11.25;;
22502;SDS011;11418;48.118;9.992;2023-03-01T20:56:14;26.83;;;11.15;;
22502;SDS011;11418;48.118;9.992;2023-03-01T21:00:16;23.63;;;10.45;;
22502;SDS011;11418;48.118;9.992;2023-03-01T21:04:17;32.10;;;11.82;;
22502;SDS011;11418;48.118;9.992;2023-03-01T21:08:17;23.02;;;10.80;;
22502;SDS011;11418;48.118;9.992;2023-03-01T21:12:18;21.85;;;9.35;;
22502;SDS011;11418;48.118;9.992;2023-03-01T21:16:19;21.58;;;10.45;;
22502;SDS011;11418;48.118;9.992;2023-03-01T21:20:20;21.90;;;10.48;;
22502;SDS011;11418;48.118;9.992;2023-03-01T21:24:21;21.42;;;10.00;;
22502;SDS011;11418;48.118;9.992;2023-03-01T21:28:21;26.80;;;10.40;;
22502;SDS011;11418;48.118;9.992;2023-03-01T21:32:22;23.58;;;10.60;;
22502;SDS011;11418;48.118;9.992;2023-03-01T21:36:23;20.58;;;8.98;;
22502;SDS011;11418;48.118;9.992;2023-03-01T21:40:25;19.40;;;9.18;;
22502;SDS011;11418;48.118;9.992;2023-03-01T21:44:26;22.48;;;9.57;;
22502;SDS011;11418;48.118;9.992;2023-03-01T21:48:28;20.40;;;8.85;;
22502;SDS011;11418;48.118;9.992;2023-03-01T21:52:29;20.30;;;9.15;;
22502;SDS011;11418;48.118;9.992;2023-03-01T21:56:30;23.52;;;9.90;;
22502;SDS011;11418;48.118;9.992;2023-03-01T22:00:33;21.02;;;10.35;;
22502;SDS011;11418;48.118;9.992;2023-03-01T22:04:38;19.70;;;10.30;;
22502;SDS011;11418;48.118;9.992;2023-03-01T22:08:40;18.52;;;8.75;;
22502;SDS011;11418;48.118;9.992;2023-03-01T22:12:40;18.90;;;8.82;;
22502;SDS011;11418;48.118;9.992;2023-03-01T22:16:41;21.83;;;9.68;;
22502;SDS011;11418;48.118;9.992;2023-03-01T22:20:44;24.77;;;10.57;;
22502;SDS011;11418;48.118;9.992;2023-03-01T22:24:44;21.13;;;10.13;;
22502;SDS011;11418;48.118;9.992;2023-03-01T22:28:45;22.23;;;9.00;;
22502;SDS011;11418;48.118;9.992;2023-03-01T22:32:45;18.02;;;8.77;;
22502;SDS011;11418;48.118;9.992;2023-03-01T22:36:46;22.13;;;9.73;;
22502;SDS011;11418;48.118;9.992;2023-03-01T22:41:00;24.35;;;8.95;;
22502;SDS011;11418;48.118;9.992;2023-03-01T22:45:02;20.05;;;9.77;;
22502;SDS011;11418;48.118;9.992;2023-03-01T22:49:03;19.92;;;9.75;;
22502;SDS011;11418;48.118;9.992;2023-03-01T22:53:04;23.20;;;10.27;;
22502;SDS011;11418;48.118;9.992;2023-03-01T22:57:04;19.95;;;9.25;;
22502;SDS011;11418;48.118;9.992;2023-03-01T23:01:12;18.23;;;8.82;;
22502;SDS011;11418;48.118;9.992;2023-03-01T23:05:18;15.63;;;6.70;;
22502;SDS011;11418;48.118;9.992;2023-03-01T23:09:23;22.75;;;9.43;;
22502;SDS011;11418;48.118;9.992;2023-03-01T23:13:29;22.50;;;9.35;;
22502;SDS011;11418;48.118;9.992;2023-03-01T23:17:30;20.85;;;9.75;;
22502;SDS011;11418;48.118;9.992;2023-03-01T23:21:31;19.83;;;8.13;;
22502;SDS011;11418;48.118;9.992;2023-03-01T23:25:32;24.77;;;9.35;;
22502;SDS011;11418;48.118;9.992;2023-03-01T23:29:33;18.85;;;6.47;;
22502;SDS011;11418;48.118;9.992;2023-03-01T23:33:33;22.15;;;9.32;;
22502;SDS011;11418;48.118;9.992;2023-03-01T23:37:37;20.33;;;9.13;;
22502;SDS011;11418;48.118;9.992;2023-03-01T23:41:38;21.25;;;8.82;;
22502;SDS011;11418;48.118;9.992;2023-03-01T23:45:38;19.90;;;8.90;;
22502;SDS011;11418;48.118;9.992;2023-03-01T23:49:42;7.28;;;3.65;;
22502;SDS011;11418;48.118;9.992;2023-03-01T23:53:43;21.88;;;10.23;;
22502;SDS011;11418;48.118;9.992;2023-03-01T23:57:53;23.83;;;10.55;;
